Time;durP1;ratioP1;P1;durP2;ratioP2;P2;SDS_P1;SDS_P2;PMS_P1;PMS_P2;Temp;Humidity;BMP_temperature;BMP_pressure;BME280_temperature;BME280_humidity;BME280_pressure;Samples;Min_cycle;Max_cycle;Signal;HPM_P1;HPM_P2
2021/03/12 00:00:36;;;;;;;0.40;0.40;;;;;;;4.19;91.36;97196.25;5065108;28;20040;-69
2021/03/12 00:03:02;;;;;;;0.30;0.30;;;;;;;4.18;91.51;97189.44;5065210;28;20089;-69
2021/03/12 00:05:27;;;;;;;0.30;0.30;;;;;;;4.16;91.43;97196.34;5065307;28;20027;-68
2021/03/12 00:07:56;;;;;;;0.30;0.30;;;;;;;4.16;91.41;97196.34;5065088;28;20525;-68
2021/03/12 00:10:25;;;;;;;0.30;0.30;;;;;;;4.16;91.46;97208.34;5064905;28;20555;-69
2021/03/12 00:12:50;;;;;;;0.30;0.30;;;;;;;4.11;91.56;97205.94;5065081;28;20028;-68
2021/03/12 00:15:18;;;;;;;0.30;0.30;;;;;;;4.12;91.40;97217.06;5064654;28;20020;-68
2021/03/12 00:17:45;;;;;;;0.30;0.30;;;;;;;4.12;91.47;97202.47;5046716;28;20048;-68
2021/03/12 00:20:17;;;;;;;0.30;0.30;;;;;;;4.10;91.46;97227.38;5064386;28;20064;-68
2021/03/12 00:22:42;;;;;;;;;;;;;;;4.09;91.36;97229.09;5065183;28;20115;-69
2021/03/12 00:25:11;;;;;;;0.30;0.30;;;;;;;4.06;91.35;97229.19;5064357;28;19979;-69
2021/03/12 00:27:37;;;;;;;0.20;0.20;;;;;;;4.02;91.24;97237.06;5064449;28;20061;-68
2021/03/12 00:30:08;;;;;;;0.30;0.30;;;;;;;3.99;91.42;97235.44;5046391;28;20398;-68
2021/03/12 00:32:34;;;;;;;0.35;0.35;;;;;;;3.99;91.37;97245.72;5064467;28;20029;-68
2021/03/12 00:34:59;;;;;;;0.30;0.30;;;;;;;3.98;91.31;97228.59;5064497;28;20024;-69
2021/03/12 00:37:25;;;;;;;0.30;0.30;;;;;;;3.97;91.39;97235.50;5045720;28;20024;-69
2021/03/12 00:39:50;;;;;;;0.30;0.30;;;;;;;3.97;91.36;97247.47;5064197;28;20033;-70
2021/03/12 00:42:16;;;;;;;0.30;0.30;;;;;;;3.99;91.39;97253.41;5064374;28;20036;-69
2021/03/12 00:44:41;;;;;;;0.30;0.30;;;;;;;4.00;91.45;97251.66;5064202;28;20021;-69
2021/03/12 00:47:07;;;;;;;0.30;0.30;;;;;;;4.02;91.41;97260.16;5064437;28;20096;-69
2021/03/12 00:49:32;;;;;;;0.30;0.30;;;;;;;4.03;91.49;97257.53;5063832;28;20044;-69
2021/03/12 00:51:58;;;;;;;0.30;0.30;;;;;;;4.04;91.36;97258.38;5064085;28;20474;-68
2021/03/12 00:54:23;;;;;;;0.20;0.20;;;;;;;4.05;91.34;97270.31;5063985;28;20029;-68
2021/03/12 00:56:49;;;;;;;0.30;0.30;;;;;;;4.04;91.40;97269.47;5063881;28;20025;-68
2021/03/12 00:59:14;;;;;;;0.30;0.30;;;;;;;4.07;91.38;97273.69;5063513;28;20109;-68
2021/03/12 01:01:40;;;;;;;0.30;0.30;;;;;;;4.08;91.33;97272.78;5063849;28;20040;-69
2021/03/12 01:04:05;;;;;;;0.30;0.30;;;;;;;4.07;91.40;97284.78;5045878;28;20028;-69
2021/03/12 01:06:30;;;;;;;0.30;0.30;;;;;;;4.14;91.41;97293.13;5063949;28;20021;-69
2021/03/12 01:08:56;;;;;;;0.30;0.30;;;;;;;4.17;91.33;97300.72;5063539;28;20524;-70
2021/03/12 01:11:21;;;;;;;0.30;0.30;;;;;;;4.19;91.30;97296.38;5063475;28;20059;-69
2021/03/12 01:13:47;;;;;;;0.30;0.30;;;;;;;4.21;91.38;97297.19;5063595;28;20025;-69
2021/03/12 01:16:12;;;;;;;0.30;0.30;;;;;;;4.23;91.30;97304.84;5063878;28;20057;-69
2021/03/12 01:18:38;;;;;;;0.30;0.30;;;;;;;4.25;91.33;97307.34;5063495;28;20025;-70
2021/03/12 01:21:03;;;;;;;0.30;0.30;;;;;;;4.25;91.33;97297.91;5063350;28;20032;-69
2021/03/12 01:23:29;;;;;;;0.30;0.30;;;;;;;4.26;91.38;97312.44;5063416;28;20048;-69
2021/03/12 01:25:54;;;;;;;0.30;0.30;;;;;;;4.26;91.35;97319.28;5063135;28;20072;-69
2021/03/12 01:28:20;;;;;;;0.30;0.30;;;;;;;4.29;91.39;97308.94;5063220;28;20028;-69
2021/03/12 01:30:47;;;;;;;0.20;0.20;;;;;;;4.29;91.32;97321.75;5063566;28;20038;-69
2021/03/12 01:33:12;;;;;;;0.25;0.25;;;;;;;4.31;91.37;97325.13;5063418;28;20021;-69
2021/03/12 01:35:38;;;;;;;0.25;0.25;;;;;;;4.30;91.19;97315.72;5063535;28;20032;-68
2021/03/12 01:38:04;;;;;;;0.20;0.20;;;;;;;4.31;91.30;97322.56;5063327;28;20081;-70
2021/03/12 01:40:31;;;;;;;0.30;0.30;;;;;;;4.32;91.39;97321.66;5063055;28;20029;-69
2021/03/12 01:42:58;;;;;;;0.30;0.30;;;;;;;4.31;91.18;97325.13;5063344;28;20020;-70
2021/03/12 01:45:37;;;;;;;0.30;0.30;;;;;;;4.29;91.26;97332.88;5063160;28;20108;-70
2021/03/12 01:48:07;;;;;;;0.30;0.30;;;;;;;4.28;91.23;97313.22;5064900;28;20416;-69
2021/03/12 01:50:33;;;;;;;0.30;0.30;;;;;;;4.26;91.48;97329.56;5049527;28;20658;-68
2021/03/12 01:52:58;;;;;;;0.82;0.77;;;;;;;4.28;91.27;97336.31;5067700;28;20056;-69
2021/03/12 01:55:34;;;;;;;0.30;0.30;;;;;;;4.29;91.30;97340.59;5049465;28;20082;-69
2021/03/12 01:58:00;;;;;;;0.28;0.28;;;;;;;4.28;91.35;97344.03;5067505;28;20025;-69
2021/03/12 02:00:27;;;;;;;0.30;0.30;;;;;;;4.24;91.26;97339.03;5067027;28;20017;-68
2021/03/12 02:02:53;;;;;;;0.22;0.22;;;;;;;4.27;91.19;97338.94;5067154;28;20086;-69
2021/03/12 02:05:18;;;;;;;0.30;0.30;;;;;;;4.26;91.19;97344.97;5067371;28;20025;-69
2021/03/12 02:07:44;;;;;;;0.30;0.30;;;;;;;4.25;91.28;97349.25;5067291;28;20105;-69
2021/03/12 02:10:13;;;;;;;2.05;1.75;;;;;;;4.26;91.36;97355.25;5067027;28;20025;-69
2021/03/12 02:13:06;;;;;;;0.30;0.30;;;;;;;4.29;91.31;97360.28;5066825;28;20025;-69
2021/03/12 02:16:19;;;;;;;0.30;0.30;;;;;;;4.30;91.27;97361.97;5066847;28;20036;-69
2021/03/12 02:19:12;;;;;;;0.30;0.30;;;;;;;4.29;91.24;97361.13;5045255;28;20037;-69
2021/03/12 02:21:53;;;;;;;0.30;0.30;;;;;;;4.33;91.28;97367.00;5066688;28;20028;-69
2021/03/12 02:24:46;;;;;;;0.30;0.30;;;;;;;4.33;91.22;97359.28;5066947;28;20385;-69
2021/03/12 02:27:13;;;;;;;0.30;0.30;;;;;;;4.33;91.34;97367.00;5065633;28;20045;-69
2021/03/12 02:29:45;;;;;;;0.30;0.30;;;;;;;4.34;91.38;97376.41;5065115;28;20032;-69
2021/03/12 02:32:15;;;;;;;0.30;0.30;;;;;;;4.36;91.32;97378.91;5047501;28;20044;-70
2021/03/12 02:34:44;;;;;;;0.28;0.28;;;;;;;4.30;91.33;97364.53;5065396;28;20398;-69
2021/03/12 02:37:12;;;;;;;0.30;0.30;;;;;;;4.36;91.25;97387.44;5065275;28;20025;-70
2021/03/12 02:39:48;;;;;;;0.30;0.30;;;;;;;4.34;91.33;97381.53;5046891;28;20025;-69
2021/03/12 02:42:15;;;;;;;0.20;0.20;;;;;;;4.33;91.24;97384.97;5065018;28;20037;-69
2021/03/12 02:44:42;;;;;;;0.40;0.40;;;;;;;4.32;91.13;97401.28;5065124;28;20045;-68
2021/03/12 02:47:16;;;;;;;0.30;0.30;;;;;;;4.32;91.21;97404.69;5065142;28;20100;-68
2021/03/12 02:49:43;;;;;;;0.30;0.30;;;;;;;4.32;91.21;97398.72;5046989;28;20084;-69
2021/03/12 02:52:09;;;;;;;0.30;0.30;;;;;;;4.29;91.20;97397.09;5065145;28;20031;-69
2021/03/12 02:54:35;;;;;;;0.30;0.30;;;;;;;4.28;91.25;97394.56;5064934;28;20033;-69
2021/03/12 02:57:00;;;;;;;0.30;0.30;;;;;;;4.26;91.28;97406.63;5065103;28;20031;-69
2021/03/12 02:59:27;;;;;;;0.30;0.30;;;;;;;4.28;91.25;97402.28;5063669;28;20040;-69
2021/03/12 03:01:53;;;;;;;0.30;0.30;;;;;;;4.27;91.25;97405.72;5064922;28;20446;-69
2021/03/12 03:04:20;;;;;;;0.30;0.30;;;;;;;4.26;91.22;97409.19;5064888;28;20024;-69
2021/03/12 03:06:46;;;;;;;0.30;0.30;;;;;;;4.26;91.20;97412.59;5064679;28;20029;-69
2021/03/12 03:09:14;;;;;;;0.30;0.30;;;;;;;4.26;91.20;97415.16;5064805;28;20021;-69
2021/03/12 03:11:40;;;;;;;0.30;0.30;;;;;;;4.26;91.20;97419.47;5046897;28;20027;-69
2021/03/12 03:14:06;;;;;;;0.30;0.30;;;;;;;4.25;91.24;97422.94;5064561;28;20489;-68
2021/03/12 03:16:36;;;;;;;0.20;0.20;;;;;;;4.26;91.16;97411.75;5064870;28;20033;-68
2021/03/12 03:19:06;;;;;;;0.30;0.30;;;;;;;4.26;91.21;97437.44;5046769;28;20032;-69
2021/03/12 03:21:33;;;;;;;0.30;0.30;;;;;;;4.26;91.20;97430.56;5064454;28;20018;-70
2021/03/12 03:23:58;;;;;;;0.30;0.30;;;;;;;4.29;91.40;97447.59;5046576;28;20066;-68
2021/03/12 03:26:24;;;;;;;0.30;0.30;;;;;;;4.28;91.03;97451.91;5043572;28;620003;-69
2021/03/12 03:28:51;;;;;;;0.28;0.28;;;;;;;4.27;91.16;97437.38;5065543;28;20032;-69
2021/03/12 03:31:16;;;;;;;0.20;0.20;;;;;;;4.27;91.20;97441.66;5065531;28;20044;-68
2021/03/12 03:33:42;;;;;;;0.28;0.28;;;;;;;4.28;91.27;97451.06;5065464;28;20623;-68
2021/03/12 03:36:07;;;;;;;0.30;0.30;;;;;;;4.29;91.27;97461.31;5065471;28;20035;-68
2021/03/12 03:38:33;;;;;;;0.30;0.30;;;;;;;4.31;91.25;97458.69;5065228;28;20527;-69
2021/03/12 03:41:03;;;;;;;0.30;0.30;;;;;;;4.32;91.29;97465.50;5065424;28;20097;-69
2021/03/12 03:43:32;;;;;;;0.30;0.30;;;;;;;4.29;91.04;97466.44;5065302;28;20156;-69
2021/03/12 03:46:02;;;;;;;0.30;0.30;;;;;;;4.31;91.09;97486.94;5065611;28;20021;-69
2021/03/12 03:48:27;;;;;;;0.30;0.30;;;;;;;4.28;91.22;97477.56;5065635;28;20021;-68
2021/03/12 03:50:54;;;;;;;0.30;0.30;;;;;;;4.29;91.14;97483.56;5047237;28;20095;-68
2021/03/12 03:53:20;;;;;;;0.30;0.30;;;;;;;4.21;91.03;97463.25;5065174;28;20080;-68
2021/03/12 03:55:46;;;;;;;0.30;0.30;;;;;;;4.26;91.25;97479.38;5065266;28;20040;-68
2021/03/12 03:58:14;;;;;;;0.30;0.30;;;;;;;4.27;91.11;97498.16;5065201;28;20029;-67
2021/03/12 04:00:40;;;;;;;0.30;0.30;;;;;;;4.28;91.15;97497.31;5064947;28;20531;-67
2021/03/12 04:03:06;;;;;;;0.20;0.20;;;;;;;4.27;91.16;97499.03;5065160;28;20039;-67
2021/03/12 04:05:32;;;;;;;0.30;0.30;;;;;;;4.27;91.26;97509.28;5065109;28;20090;-67
2021/03/12 04:08:00;;;;;;;0.30;0.30;;;;;;;4.28;91.26;97502.44;5065189;28;20021;-68
2021/03/12 04:10:26;;;;;;;0.30;0.30;;;;;;;4.27;91.16;97509.28;5064454;28;20020;-68
2021/03/12 04:12:52;;;;;;;0.30;0.30;;;;;;;4.30;91.06;97516.06;5064041;28;20031;-68
2021/03/12 04:15:18;;;;;;;0.30;0.30;;;;;;;4.27;91.10;97511.00;5064688;28;20021;-68
2021/03/12 04:17:45;;;;;;;0.30;0.30;;;;;;;4.33;91.10;97523.66;5064573;28;20028;-68
2021/03/12 04:20:13;;;;;;;0.30;0.30;;;;;;;4.35;91.18;97519.34;5064342;28;20032;-68
2021/03/12 04:22:39;;;;;;;0.30;0.30;;;;;;;4.34;91.05;97531.34;5064630;28;20607;-67
2021/03/12 04:25:06;;;;;;;0.20;0.20;;;;;;;4.34;90.96;97523.63;5046369;28;20112;-66
2021/03/12 04:27:33;;;;;;;0.30;0.30;;;;;;;4.28;91.13;97517.84;5064507;28;20025;-67
2021/03/12 04:29:59;;;;;;;0.30;0.30;;;;;;;4.36;91.01;97531.28;5046086;28;20108;-67
2021/03/12 04:32:25;;;;;;;0.30;0.30;;;;;;;4.37;91.15;97529.56;5064458;28;20051;-67
2021/03/12 04:34:51;;;;;;;0.30;0.30;;;;;;;4.39;91.09;97536.38;5064381;28;20021;-68
2021/03/12 04:37:17;;;;;;;0.20;0.20;;;;;;;4.37;91.09;97540.69;5064371;28;20020;-67
2021/03/12 04:39:43;;;;;;;0.30;0.30;;;;;;;4.38;90.97;97539.78;5064154;28;20029;-67
2021/03/12 04:42:10;;;;;;;0.30;0.30;;;;;;;4.37;90.97;97547.53;5046440;28;20021;-67
2021/03/12 04:44:37;;;;;;;0.30;0.30;;;;;;;4.38;91.16;97541.53;5064022;28;20070;-67
2021/03/12 04:47:04;;;;;;;0.30;0.30;;;;;;;4.37;90.99;97556.09;5046328;28;20021;-67
2021/03/12 04:49:30;;;;;;;0.30;0.30;;;;;;;4.37;91.00;97552.69;5064022;28;20040;-67
2021/03/12 04:51:56;;;;;;;0.30;0.30;;;;;;;4.36;91.08;97551.00;5064259;28;20047;-67
2021/03/12 04:54:22;;;;;;;0.30;0.30;;;;;;;4.37;91.04;97550.13;5064076;28;20080;-67
2021/03/12 04:56:48;;;;;;;0.30;0.30;;;;;;;4.34;91.01;97551.06;5064108;28;20033;-67
2021/03/12 04:59:14;;;;;;;0.30;0.30;;;;;;;4.39;91.18;97561.19;5063779;28;20025;-67
2021/03/12 05:01:42;;;;;;;2.13;1.95;;;;;;;4.37;91.12;97557.81;5063984;28;20029;-67
2021/03/12 05:04:09;;;;;;;0.30;0.30;;;;;;;4.38;91.04;97562.09;5046348;28;20046;-66
2021/03/12 05:06:38;;;;;;;0.30;0.30;;;;;;;4.38;91.07;97575.75;5063937;28;20338;-68
2021/03/12 05:09:04;;;;;;;0.30;0.30;;;;;;;4.33;91.03;97567.34;5045724;28;20092;-67
2021/03/12 05:11:29;;;;;;;0.30;0.30;;;;;;;4.37;91.03;97579.22;5063407;28;20032;-66
2021/03/12 05:13:54;;;;;;;0.30;0.30;;;;;;;4.34;91.09;97579.31;5063485;28;20025;-66
2021/03/12 05:16:20;;;;;;;0.30;0.30;;;;;;;4.38;91.06;97574.94;5063553;28;20029;-65
2021/03/12 05:18:46;;;;;;;0.30;0.30;;;;;;;4.35;91.01;97583.56;5063396;28;20029;-66
2021/03/12 05:21:15;;;;;;;0.30;0.30;;;;;;;4.33;91.01;97585.31;5063210;28;20092;-65
2021/03/12 05:23:41;;;;;;;0.30;0.30;;;;;;;4.36;91.06;97590.38;5063360;28;20056;-68
2021/03/12 05:26:06;;;;;;;0.30;0.30;;;;;;;4.37;90.94;97584.34;5063124;28;20053;-67
2021/03/12 05:28:32;;;;;;;0.30;0.30;;;;;;;4.33;91.06;97582.75;5063143;28;20048;-67
2021/03/12 05:30:57;;;;;;;0.30;0.30;;;;;;;4.38;91.06;97598.88;5063158;28;20032;-66
2021/03/12 05:33:22;;;;;;;0.30;0.30;;;;;;;4.36;90.94;97594.69;5063314;28;20059;-67
2021/03/12 05:35:48;;;;;;;0.30;0.30;;;;;;;4.32;91.14;97589.63;5063543;28;20108;-68
2021/03/12 05:38:13;;;;;;;0.30;0.30;;;;;;;4.29;90.98;97589.72;5045181;28;20334;-68
2021/03/12 05:40:42;;;;;;;0.30;0.30;;;;;;;4.33;91.02;97601.56;5063146;28;20029;-68
2021/03/12 05:43:09;;;;;;;0.30;0.30;;;;;;;4.33;90.96;97604.16;5063316;28;20029;-69
2021/03/12 05:45:35;;;;;;;0.30;0.30;;;;;;;4.31;91.08;97603.34;5045210;28;20025;-68
2021/03/12 05:48:01;;;;;;;0.40;0.40;;;;;;;4.32;90.91;97614.47;5063149;28;20442;-68
2021/03/12 05:50:27;;;;;;;0.30;0.30;;;;;;;4.28;90.94;97612.88;5063154;28;20012;-68
2021/03/12 05:52:53;;;;;;;0.20;0.20;;;;;;;4.32;90.65;97622.16;5063203;28;20036;-68
2021/03/12 05:55:19;;;;;;;0.30;0.30;;;;;;;4.31;90.94;97610.22;5063555;28;20029;-69
2021/03/12 05:57:45;;;;;;;0.30;0.30;;;;;;;4.33;90.90;97629.84;5063484;28;20055;-69
2021/03/12 06:00:12;;;;;;;0.30;0.30;;;;;;;4.32;90.96;97629.88;5062583;28;20022;-68
2021/03/12 06:02:38;;;;;;;0.30;0.30;;;;;;;4.31;90.85;97641.88;5063170;28;20100;-69
2021/03/12 06:05:09;;;;;;;0.30;0.30;;;;;;;4.31;90.99;97644.44;5062963;28;20114;-73
2021/03/12 06:07:35;;;;;;;0.30;0.30;;;;;;;4.26;90.85;97633.47;5062673;28;20029;-69
2021/03/12 06:10:02;;;;;;;0.30;0.30;;;;;;;4.24;90.88;97644.66;5063014;28;20461;-69
2021/03/12 06:12:28;;;;;;;0.30;0.30;;;;;;;4.32;91.01;97651.28;5062822;28;20029;-67
2021/03/12 06:14:56;;;;;;;0.40;0.40;;;;;;;4.27;90.84;97642.84;5063010;28;20032;-68
2021/03/12 06:17:41;;;;;;;0.30;0.30;;;;;;;4.31;91.07;97666.72;5062944;28;20029;-67
2021/03/12 06:20:15;;;;;;;0.30;0.30;;;;;;;4.30;90.92;97671.00;5063006;28;20533;-67
2021/03/12 06:22:55;;;;;;;0.30;0.30;;;;;;;4.29;90.92;97678.75;5063226;28;20053;-67
2021/03/12 06:25:26;;;;;;;0.30;0.30;;;;;;;4.28;91.08;97677.09;5062612;28;20401;-66
2021/03/12 06:27:53;;;;;;;0.30;0.30;;;;;;;4.25;90.84;97682.31;5062894;28;20025;-66
2021/03/12 06:30:21;;;;;;;0.30;0.30;;;;;;;4.22;90.67;97673.78;5062547;28;20013;-67
2021/03/12 06:32:48;;;;;;;0.30;0.30;;;;;;;4.27;90.64;97694.22;5062965;28;20024;-68
2021/03/12 06:35:17;;;;;;;0.30;0.30;;;;;;;4.26;90.55;97700.25;5064413;28;20053;-67
2021/03/12 06:37:46;;;;;;;0.30;0.30;;;;;;;4.26;90.34;97696.81;5066665;28;20027;-65
2021/03/12 06:40:18;;;;;;;0.30;0.30;;;;;;;4.28;90.22;97695.06;5066350;28;20029;-67
2021/03/12 06:42:56;;;;;;;;;;;;;;;4.37;90.10;97706.81;5067146;28;20017;-67
2021/03/12 06:45:21;;;;;;;0.88;0.88;;;;;;;4.31;90.00;97720.66;5066277;28;20418;-66
2021/03/12 06:47:46;;;;;;;0.30;0.30;;;;;;;4.34;89.91;97723.97;5066098;28;20032;-66
2021/03/12 06:50:12;;;;;;;0.30;0.30;;;;;;;4.37;89.63;97711.94;5066137;28;20016;-66
2021/03/12 06:52:38;;;;;;;0.30;0.30;;;;;;;4.41;89.88;97724.66;5066220;28;20032;-66
2021/03/12 06:55:06;;;;;;;0.30;0.30;;;;;;;4.46;89.77;97727.97;5066229;28;20031;-66
2021/03/12 06:57:31;;;;;;;0.30;0.30;;;;;;;4.51;89.55;97732.13;5066377;28;20025;-65
2021/03/12 06:59:58;;;;;;;0.30;0.30;;;;;;;4.49;89.38;97746.75;5065937;28;20029;-66
2021/03/12 07:02:36;;;;;;;0.30;0.30;;;;;;;4.52;89.46;97752.63;5066456;28;20080;-65
2021/03/12 07:05:04;;;;;;;0.30;0.30;;;;;;;4.55;89.22;97756.88;5066186;28;20029;-65
2021/03/12 07:07:34;;;;;;;0.30;0.30;;;;;;;4.55;88.86;97762.84;5066230;28;20040;-66
2021/03/12 07:10:00;;;;;;;0.30;0.30;;;;;;;4.59;88.62;97766.16;5066391;28;20025;-65
2021/03/12 07:12:50;;;;;;;0.30;0.30;;;;;;;4.59;88.63;97773.88;5066348;28;20032;-66
2021/03/12 07:15:16;;;;;;;1.38;1.38;;;;;;;4.59;88.74;97779.88;5066188;28;20032;-66
2021/03/12 07:17:43;;;;;;;1.10;1.10;;;;;;;4.60;88.38;97765.28;5066387;28;20029;-67
2021/03/12 07:20:11;;;;;;;0.50;0.50;;;;;;;4.66;88.44;97774.56;5066044;28;20053;-67
2021/03/12 07:22:39;;;;;;;0.30;0.30;;;;;;;4.63;88.31;97777.22;5066239;28;20024;-67
2021/03/12 07:25:08;;;;;;;0.30;0.30;;;;;;;4.68;88.03;97788.22;5066084;28;20045;-68
2021/03/12 07:27:38;;;;;;;0.30;0.30;;;;;;;4.68;87.93;97786.47;5066362;28;20025;-68
2021/03/12 07:30:06;;;;;;;0.30;0.30;;;;;;;4.73;88.06;97795.81;5065771;28;20148;-69
2021/03/12 07:32:34;;;;;;;0.30;0.30;;;;;;;4.77;87.91;97797.41;5065768;28;20111;-68
2021/03/12 07:35:00;;;;;;;0.80;0.80;;;;;;;4.85;88.19;97798.03;5047925;28;20036;-67
2021/03/12 07:37:33;;;;;;;1.40;1.30;;;;;;;4.90;88.00;97803.91;5065638;28;20092;-66
2021/03/12 07:39:59;;;;;;;0.30;0.30;;;;;;;4.89;87.56;97812.50;5065371;28;20031;-66
2021/03/12 07:42:26;;;;;;;0.30;0.30;;;;;;;4.93;87.48;97811.53;5065624;28;20173;-65
2021/03/12 07:44:52;;;;;;;0.30;0.30;;;;;;;4.99;87.35;97807.94;5047246;28;20401;-65
2021/03/12 07:47:22;;;;;;;0.30;0.30;;;;;;;5.03;86.89;97806.13;5065346;28;20084;-64
2021/03/12 07:49:48;;;;;;;0.43;0.43;;;;;;;5.12;87.12;97805.88;5065540;28;20021;-65
2021/03/12 07:52:14;;;;;;;1.25;1.25;;;;;;;5.17;86.37;97822.03;5065437;28;20491;-64
2021/03/12 07:54:40;;;;;;;0.30;0.30;;;;;;;5.26;86.64;97825.22;5065419;28;20025;-65
2021/03/12 07:57:12;;;;;;;0.30;0.30;;;;;;;5.34;86.26;97830.97;5065594;28;20040;-66
2021/03/12 07:59:46;;;;;;;0.30;0.30;;;;;;;5.34;86.20;97836.13;5065274;28;20103;-65
2021/03/12 08:02:15;;;;;;;0.32;0.32;;;;;;;5.30;85.87;97837.13;5065119;28;20029;-66
2021/03/12 08:04:42;;;;;;;0.30;0.30;;;;;;;5.30;86.17;97839.69;5065211;28;20017;-65
2021/03/12 08:07:20;;;;;;;0.30;0.30;;;;;;;5.32;85.62;97845.63;5047462;28;20028;-65
2021/03/12 08:09:56;;;;;;;0.20;0.20;;;;;;;5.29;85.24;97845.69;5065271;28;20049;-65
2021/03/12 08:12:39;;;;;;;0.30;0.30;;;;;;;5.19;84.60;97833.09;5047092;28;20105;-66
2021/03/12 08:15:29;;;;;;;0.30;0.30;;;;;;;5.22;83.72;97855.34;5064982;28;20032;-64
2021/03/12 08:17:57;;;;;;;0.30;0.30;;;;;;;5.28;84.67;97852.59;5069644;28;20017;-65
2021/03/12 08:20:23;;;;;;;0.30;0.30;;;;;;;5.32;84.66;97859.34;5067979;28;20028;-65
2021/03/12 08:22:50;;;;;;;0.30;0.30;;;;;;;5.37;84.36;97861.78;5064840;28;20029;-65
2021/03/12 08:25:40;;;;;;;0.20;0.20;;;;;;;5.43;84.02;97864.16;5064854;28;20028;-64
2021/03/12 08:28:05;;;;;;;0.28;0.28;;;;;;;5.50;83.36;97854.56;5064671;28;20104;-64
2021/03/12 08:30:33;;;;;;;0.35;0.35;;;;;;;5.57;84.23;97863.75;5046547;28;20036;-64
2021/03/12 08:32:59;;;;;;;0.30;0.30;;;;;;;5.63;84.07;97870.47;5046747;28;20158;-64
2021/03/12 08:35:34;;;;;;;1.05;1.05;;;;;;;5.67;83.15;97869.50;5046703;28;20020;-64
2021/03/12 08:38:04;;;;;;;1.42;1.42;;;;;;;5.60;81.85;97880.03;5064735;28;20104;-64
2021/03/12 08:40:31;;;;;;;0.30;0.30;;;;;;;5.56;82.75;97885.25;5046430;28;20271;-64
2021/03/12 08:43:06;;;;;;;0.30;0.30;;;;;;;5.53;82.26;97890.50;5064330;28;20029;-64
2021/03/12 08:45:48;;;;;;;0.30;0.30;;;;;;;5.52;83.07;97893.97;5064425;28;20476;-63
2021/03/12 08:48:19;;;;;;;0.30;0.30;;;;;;;5.54;82.68;97901.63;5064495;28;20117;-64
2021/03/12 08:50:53;;;;;;;0.30;0.30;;;;;;;5.66;83.53;97901.28;5064317;28;20451;-66
2021/03/12 08:53:20;;;;;;;0.45;0.45;;;;;;;5.76;83.01;97906.16;5064167;28;20032;-65
2021/03/12 08:55:50;;;;;;;0.30;0.30;;;;;;;5.68;81.88;97898.66;5064297;28;20041;-65
2021/03/12 08:58:20;;;;;;;0.30;0.30;;;;;;;5.77;82.17;97907.84;5063667;28;20047;-66
2021/03/12 09:00:49;;;;;;;0.30;0.30;;;;;;;5.70;81.51;97910.59;5063741;28;20028;-66
2021/03/12 09:03:27;;;;;;;0.30;0.30;;;;;;;5.57;81.14;97907.53;5064011;28;20044;-67
2021/03/12 09:06:00;;;;;;;0.30;0.30;;;;;;;5.56;80.96;97915.28;5063973;28;20033;-67
2021/03/12 09:08:28;;;;;;;0.40;0.40;;;;;;;5.52;81.22;97924.84;5064013;28;20032;-66
2021/03/12 09:10:55;;;;;;;0.30;0.30;;;;;;;5.51;81.44;97933.44;5063711;28;20036;-67
2021/03/12 09:13:32;;;;;;;0.30;0.30;;;;;;;5.53;81.67;97928.25;5063719;28;20029;-67
2021/03/12 09:15:58;;;;;;;0.30;0.30;;;;;;;5.59;81.99;97935.81;5063546;28;20094;-67
2021/03/12 09:18:25;;;;;;;0.30;0.30;;;;;;;5.60;80.80;97940.06;5045920;28;20032;-66
2021/03/12 09:21:03;;;;;;;0.38;0.38;;;;;;;5.79;82.64;97932.66;5063582;28;20020;-65
2021/03/12 09:23:33;;;;;;;0.30;0.30;;;;;;;5.98;80.60;97933.84;5063948;28;20424;-66
2021/03/12 09:25:59;;;;;;;0.35;0.35;;;;;;;6.04;78.68;97947.44;5063531;28;20044;-65
2021/03/12 09:28:29;;;;;;;0.30;0.30;;;;;;;6.06;78.71;97937.06;5063742;28;20032;-64
2021/03/12 09:30:55;;;;;;;0.30;0.30;;;;;;;6.07;78.17;97944.75;5063601;28;20021;-64
2021/03/12 09:33:29;;;;;;;0.45;0.45;;;;;;;6.00;77.24;97950.09;5063724;28;20039;-64
2021/03/12 09:35:55;;;;;;;0.30;0.30;;;;;;;5.95;77.98;97958.81;5063643;28;20080;-66
2021/03/12 09:38:38;;;;;;;0.30;0.30;;;;;;;5.92;77.97;97948.63;5045798;28;20017;-64
2021/03/12 09:41:16;;;;;;;0.30;0.30;;;;;;;5.85;77.91;97959.97;5045506;28;20028;-66
2021/03/12 09:43:55;;;;;;;0.40;0.40;;;;;;;5.83;79.03;97970.31;5063419;28;20021;-64
2021/03/12 09:46:26;;;;;;;0.98;0.98;;;;;;;5.70;77.19;97969.81;5045850;28;20031;-65
2021/03/12 09:48:51;;;;;;;0.40;0.40;;;;;;;5.58;77.35;97970.16;5063401;28;20033;-64
2021/03/12 09:51:17;;;;;;;0.30;0.30;;;;;;;5.55;78.40;97978.81;5063256;28;20043;-64
2021/03/12 09:53:43;;;;;;;0.30;0.30;;;;;;;5.52;77.90;97985.75;5045543;28;20024;-64
2021/03/12 09:56:08;;;;;;;0.30;0.30;;;;;;;5.55;78.59;97986.53;5063596;28;20077;-64
2021/03/12 09:58:35;;;;;;;0.40;0.40;;;;;;;5.51;78.46;97978.94;5063439;28;20079;-65
2021/03/12 10:01:11;;;;;;;1.65;1.58;;;;;;;5.52;77.90;97988.34;5062979;28;20088;-64
2021/03/12 10:03:37;;;;;;;0.30;0.30;;;;;;;5.51;77.86;97992.63;5063622;28;20147;-63
2021/03/12 10:06:07;;;;;;;0.68;0.68;;;;;;;5.44;77.87;97994.53;5063575;28;20070;-63
2021/03/12 10:08:32;;;;;;;0.30;0.30;;;;;;;5.43;78.27;97999.72;5062936;28;20571;-64
2021/03/12 10:10:58;;;;;;;0.35;0.35;;;;;;;5.55;79.31;97995.97;5048071;28;20044;-65
2021/03/12 10:13:27;;;;;;;0.98;0.98;;;;;;;5.66;78.25;98004.25;5067258;28;20033;-64
2021/03/12 10:15:52;;;;;;;0.30;0.30;;;;;;;5.76;78.62;98001.41;5066717;28;20040;-64
2021/03/12 10:18:22;;;;;;;0.40;0.40;;;;;;;5.91;78.73;98006.13;5067123;28;20029;-64
2021/03/12 10:20:48;;;;;;;0.80;0.80;;;;;;;6.06;78.57;98009.19;5066770;28;20055;-64
2021/03/12 10:23:14;;;;;;;0.88;0.88;;;;;;;6.08;78.10;98015.16;5066796;28;20028;-64
2021/03/12 10:25:45;;;;;;;0.40;0.40;;;;;;;6.15;77.94;98011.50;5066841;28;20052;-64
2021/03/12 10:28:18;;;;;;;0.40;0.40;;;;;;;6.17;77.62;98009.75;5067116;28;20028;-64
2021/03/12 10:30:57;;;;;;;0.32;0.32;;;;;;;6.25;76.93;98006.94;5066707;28;20025;-63
2021/03/12 10:33:25;;;;;;;0.40;0.40;;;;;;;6.39;76.80;98009.09;5066638;28;20120;-63
2021/03/12 10:35:55;;;;;;;0.40;0.40;;;;;;;6.52;76.54;98016.44;5066603;28;20024;-63
2021/03/12 10:38:23;;;;;;;1.52;1.48;;;;;;;6.66;77.63;98016.88;5066730;28;20024;-65
2021/03/12 10:40:54;;;;;;;0.30;0.30;;;;;;;6.73;76.22;98009.81;5066561;28;20330;-64
2021/03/12 10:43:23;;;;;;;0.30;0.30;;;;;;;6.65;74.28;98012.63;5066693;28;20032;-64
2021/03/12 10:45:49;;;;;;;0.40;0.40;;;;;;;6.61;75.00;98021.34;5066467;28;20084;-64
2021/03/12 10:48:16;;;;;;;1.65;1.55;;;;;;;6.57;75.25;98018.00;5066610;28;20142;-64
2021/03/12 10:50:53;;;;;;;0.40;0.40;;;;;;;6.50;74.62;98023.41;5066369;28;20021;-65
2021/03/12 10:53:19;;;;;;;0.30;0.30;;;;;;;6.49;75.22;98027.72;5066513;28;20028;-64
2021/03/12 10:55:49;;;;;;;0.40;0.40;;;;;;;6.52;74.44;98031.91;5066378;28;20017;-64
2021/03/12 10:58:27;;;;;;;0.32;0.32;;;;;;;6.55;74.61;98029.28;5066424;28;20139;-64
2021/03/12 11:01:20;;;;;;;0.40;0.40;;;;;;;6.61;74.48;98041.13;5065842;28;20100;-64
2021/03/12 11:03:47;;;;;;;0.40;0.40;;;;;;;6.67;74.62;98034.06;5066298;28;20033;-64
2021/03/12 11:06:14;;;;;;;0.30;0.30;;;;;;;6.69;74.66;98031.44;5066333;28;20020;-65
2021/03/12 11:08:40;;;;;;;0.40;0.40;;;;;;;6.78;74.17;98035.44;5066284;28;20095;-64
2021/03/12 11:11:09;;;;;;;0.40;0.40;;;;;;;6.85;73.40;98047.28;5065987;28;20024;-64
2021/03/12 11:13:36;;;;;;;0.32;0.32;;;;;;;6.93;73.08;98047.03;5048227;28;20120;-64
2021/03/12 11:16:01;;;;;;;0.35;0.35;;;;;;;7.01;73.65;98034.69;5047924;28;20017;-64
2021/03/12 11:18:29;;;;;;;0.30;0.30;;;;;;;6.99;73.00;98038.22;5066169;28;20021;-65
2021/03/12 11:20:55;;;;;;;0.40;0.40;;;;;;;6.88;72.34;98047.16;5065174;28;20029;-65
2021/03/12 11:23:20;;;;;;;0.40;0.40;;;;;;;6.86;72.23;98051.53;5065970;28;20092;-64
2021/03/12 11:25:46;;;;;;;0.30;0.30;;;;;;;6.79;72.14;98052.59;5065825;28;20366;-64
2021/03/12 11:28:12;;;;;;;0.30;0.30;;;;;;;6.86;72.90;98059.25;5065861;28;20013;-63
2021/03/12 11:30:37;;;;;;;0.30;0.30;;;;;;;6.95;72.51;98052.97;5065343;28;20024;-65
2021/03/12 11:33:03;;;;;;;0.30;0.30;;;;;;;7.12;74.88;98052.44;5047786;28;20029;-64
2021/03/12 11:35:29;;;;;;;0.30;0.30;;;;;;;7.26;72.58;98058.88;5065526;28;20025;-63
2021/03/12 11:37:55;;;;;;;0.35;0.35;;;;;;;7.33;72.16;98057.81;5065833;28;20085;-64
2021/03/12 11:40:20;;;;;;;0.32;0.32;;;;;;;7.44;71.65;98055.69;5065458;28;20489;-64
2021/03/12 11:42:46;;;;;;;0.50;0.50;;;;;;;7.49;71.51;98052.13;5065612;28;20095;-65
2021/03/12 11:45:14;;;;;;;0.40;0.40;;;;;;;7.54;70.59;98063.13;5065495;28;20032;-66
2021/03/12 11:47:39;;;;;;;0.30;0.30;;;;;;;7.35;69.48;98056.00;5047768;28;20047;-63